< Typhoon 200511 2005 Season Typhoon 200513 >
Typhoon 200512 (GUCHOL)
General InformationTrack Information on Google MapsDetailed Wind InformationAccess Analytics MapList of All Images || NewsDisaster Info.WeblogTrackbackTyphoon FrontResourceGoogle EarthGE AnimationAtom FeedGeoJSON
Detalied Best Track (Time Zone = UTC)
Year Month Day Hour Lat. Long. Pressure (hPa) Wind (kt) Class Image Chart
2005 8 18 18 21.6 153.5 1010 0 2 Image Chart
2005 8 19 00 21.8 152.9 1010 0 2 Image Chart
2005 8 19 06 22.0 152.4 1008 0 2 Image Chart
2005 8 19 12 22.3 151.9 1008 0 2 Image Chart
2005 8 19 18 22.5 151.5 1008 0 2 Image Chart
2005 8 20 00 22.7 151.0 1006 0 2 Image Chart
2005 8 20 06 22.9 150.6 1004 0 2 Image Chart
2005 8 20 12 23.2 150.2 1004 0 2 Image Chart
2005 8 20 18 23.6 149.6 1004 0 2 Image Chart
2005 8 21 00 24.1 149.0 1004 0 2 Image Chart
2005 8 21 06 24.9 148.4 1000 35 3 Image Chart
2005 8 21 12 25.5 147.9 996 40 3 Image Chart
2005 8 21 18 26.3 147.3 992 45 3 Image Chart
2005 8 22 00 27.0 147.0 985 55 4 Image Chart
2005 8 22 06 28.2 146.7 980 55 4 Image Chart
2005 8 22 12 29.1 146.3 980 55 4 Image Chart
2005 8 22 18 29.9 146.1 985 50 4 Image Chart
2005 8 23 00 31.1 146.3 985 50 4 Image Chart
2005 8 23 06 32.4 147.2 980 55 4 Image Chart
2005 8 23 12 33.6 148.3 980 55 4 Image Chart
2005 8 23 18 34.7 149.5 980 55 4 Image Chart
2005 8 24 00 35.6 151.2 980 55 4 Image Chart
2005 8 24 06 36.8 153.2 980 55 4 Image Chart
2005 8 24 12 37.9 155.2 980 55 4 Image Chart
2005 8 24 18 39.3 157.8 980 55 4 Image Chart
2005 8 25 00 40.7 160.3 985 50 4 Image Chart
2005 8 25 06 42.9 162.9 990 45 3 Image Chart
2005 8 25 12 45.6 164.7 992 0 6 Image Chart
2005 8 25 18 46.5 164.6 996 0 6 Image Chart
2005 8 26 00 47.2 164.4 998 0 6 Image Chart
2005 8 26 06 47.8 165.1 1000 0 6 Image Chart
2005 8 26 12 48.2 166.0 1000 0 6 Image Chart
2005 8 26 18 48.6 167.2 1000 0 6 Image Chart
2005 8 27 00 49.1 168.9 1000 0 6 Image Chart
Japan Meteorological Agency Best Track Data | Correction Date : 2005-12-19
< Typhoon 200511 2005 Season Typhoon 200513 >

Help